sensor_id;sensor_type;location;lat;lon;timestamp;P1;durP1;ratioP1;P2;durP2;ratioP2
9563;SDS011;4820;50.870;4.702;2023-05-21T00:01:00;3.35;;;3.00;;
9563;SDS011;4820;50.870;4.702;2023-05-21T00:03:27;3.45;;;3.15;;
9563;SDS011;4820;50.870;4.702;2023-05-21T00:05:54;3.83;;;3.20;;
9563;SDS011;4820;50.870;4.702;2023-05-21T00:08:21;3.50;;;3.20;;
9563;SDS011;4820;50.870;4.702;2023-05-21T00:10:47;3.35;;;3.05;;
9563;SDS011;4820;50.870;4.702;2023-05-21T00:13:12;5.10;;;3.50;;
9563;SDS011;4820;50.870;4.702;2023-05-21T00:15:38;3.42;;;3.13;;
9563;SDS011;4820;50.870;4.702;2023-05-21T00:18:04;3.60;;;3.30;;
9563;SDS011;4820;50.870;4.702;2023-05-21T00:20:30;4.00;;;3.42;;
9563;SDS011;4820;50.870;4.702;2023-05-21T00:22:59;4.75;;;3.33;;
9563;SDS011;4820;50.870;4.702;2023-05-21T00:25:29;3.33;;;3.05;;
9563;SDS011;4820;50.870;4.702;2023-05-21T00:27:55;3.30;;;3.00;;
9563;SDS011;4820;50.870;4.702;2023-05-21T00:30:22;3.70;;;3.40;;
9563;SDS011;4820;50.870;4.702;2023-05-21T00:32:48;3.47;;;3.17;;
9563;SDS011;4820;50.870;4.702;2023-05-21T00:35:14;3.45;;;3.15;;
9563;SDS011;4820;50.870;4.702;2023-05-21T00:37:40;3.90;;;3.22;;
9563;SDS011;4820;50.870;4.702;2023-05-21T00:40:06;5.40;;;3.25;;
9563;SDS011;4820;50.870;4.702;2023-05-21T00:42:33;3.83;;;3.53;;
9563;SDS011;4820;50.870;4.702;2023-05-21T00:45:07;4.00;;;3.60;;
9563;SDS011;4820;50.870;4.702;2023-05-21T00:47:33;3.85;;;3.55;;
9563;SDS011;4820;50.870;4.702;2023-05-21T00:50:00;4.80;;;4.10;;
9563;SDS011;4820;50.870;4.702;2023-05-21T00:52:28;4.70;;;3.50;;
9563;SDS011;4820;50.870;4.702;2023-05-21T00:54:54;6.05;;;3.25;;
9563;SDS011;4820;50.870;4.702;2023-05-21T00:57:21;5.18;;;3.40;;
9563;SDS011;4820;50.870;4.702;2023-05-21T00:59:49;4.30;;;3.55;;
9563;SDS011;4820;50.870;4.702;2023-05-21T01:02:16;4.07;;;3.45;;
9563;SDS011;4820;50.870;4.702;2023-05-21T01:04:45;4.70;;;3.38;;
9563;SDS011;4820;50.870;4.702;2023-05-21T01:07:11;4.13;;;3.45;;
9563;SDS011;4820;50.870;4.702;2023-05-21T01:09:40;5.60;;;3.75;;
9563;SDS011;4820;50.870;4.702;2023-05-21T01:12:07;5.65;;;3.35;;
9563;SDS011;4820;50.870;4.702;2023-05-21T01:14:34;4.43;;;3.83;;
9563;SDS011;4820;50.870;4.702;2023-05-21T01:17:01;4.20;;;3.33;;
9563;SDS011;4820;50.870;4.702;2023-05-21T01:19:28;4.45;;;3.50;;
9563;SDS011;4820;50.870;4.702;2023-05-21T01:22:02;5.43;;;3.47;;
9563;SDS011;4820;50.870;4.702;2023-05-21T01:24:29;3.92;;;3.50;;
9563;SDS011;4820;50.870;4.702;2023-05-21T01:26:57;4.30;;;3.22;;
9563;SDS011;4820;50.870;4.702;2023-05-21T01:29:24;5.30;;;3.45;;
9563;SDS011;4820;50.870;4.702;2023-05-21T01:34:21;3.95;;;3.25;;
9563;SDS011;4820;50.870;4.702;2023-05-21T01:36:55;6.07;;;3.35;;
9563;SDS011;4820;50.870;4.702;2023-05-21T01:39:31;4.30;;;3.42;;
9563;SDS011;4820;50.870;4.702;2023-05-21T01:42:00;5.05;;;4.20;;
9563;SDS011;4820;50.870;4.702;2023-05-21T01:44:29;3.55;;;3.25;;
9563;SDS011;4820;50.870;4.702;2023-05-21T01:46:56;4.40;;;3.90;;
9563;SDS011;4820;50.870;4.702;2023-05-21T01:49:23;4.57;;;4.05;;
9563;SDS011;4820;50.870;4.702;2023-05-21T01:51:49;4.13;;;3.72;;
9563;SDS011;4820;50.870;4.702;2023-05-21T01:54:15;6.28;;;3.70;;
9563;SDS011;4820;50.870;4.702;2023-05-21T01:56:41;4.15;;;3.70;;
9563;SDS011;4820;50.870;4.702;2023-05-21T01:59:09;4.65;;;4.10;;
9563;SDS011;4820;50.870;4.702;2023-05-21T02:01:37;6.47;;;4.20;;
9563;SDS011;4820;50.870;4.702;2023-05-21T02:04:02;4.68;;;3.65;;
9563;SDS011;4820;50.870;4.702;2023-05-21T02:06:28;5.13;;;3.65;;
9563;SDS011;4820;50.870;4.702;2023-05-21T02:08:55;4.70;;;3.72;;
9563;SDS011;4820;50.870;4.702;2023-05-21T02:11:21;5.68;;;4.40;;
9563;SDS011;4820;50.870;4.702;2023-05-21T02:13:47;4.20;;;3.50;;
9563;SDS011;4820;50.870;4.702;2023-05-21T02:16:13;5.25;;;4.00;;
9563;SDS011;4820;50.870;4.702;2023-05-21T02:18:40;5.00;;;3.40;;
9563;SDS011;4820;50.870;4.702;2023-05-21T02:21:10;4.90;;;3.75;;
9563;SDS011;4820;50.870;4.702;2023-05-21T02:23:37;4.60;;;4.03;;
9563;SDS011;4820;50.870;4.702;2023-05-21T02:26:03;5.85;;;4.88;;
9563;SDS011;4820;50.870;4.702;2023-05-21T02:28:29;4.25;;;3.85;;
9563;SDS011;4820;50.870;4.702;2023-05-21T02:30:56;4.30;;;3.90;;
9563;SDS011;4820;50.870;4.702;2023-05-21T02:33:22;4.32;;;3.67;;
9563;SDS011;4820;50.870;4.702;2023-05-21T02:35:48;5.45;;;4.22;;
9563;SDS011;4820;50.870;4.702;2023-05-21T02:38:13;4.15;;;3.72;;
9563;SDS011;4820;50.870;4.702;2023-05-21T02:40:43;4.22;;;3.80;;
9563;SDS011;4820;50.870;4.702;2023-05-21T02:43:09;4.82;;;4.32;;
9563;SDS011;4820;50.870;4.702;2023-05-21T02:45:35;5.43;;;3.90;;
9563;SDS011;4820;50.870;4.702;2023-05-21T02:48:01;4.90;;;4.15;;
9563;SDS011;4820;50.870;4.702;2023-05-21T02:50:26;4.38;;;3.97;;
9563;SDS011;4820;50.870;4.702;2023-05-21T02:52:52;4.47;;;3.78;;
9563;SDS011;4820;50.870;4.702;2023-05-21T02:55:18;4.63;;;4.22;;
9563;SDS011;4820;50.870;4.702;2023-05-21T02:57:44;4.30;;;3.88;;
9563;SDS011;4820;50.870;4.702;2023-05-21T03:00:09;4.60;;;4.03;;
9563;SDS011;4820;50.870;4.702;2023-05-21T03:02:36;5.13;;;4.53;;
9563;SDS011;4820;50.870;4.702;2023-05-21T03:05:01;4.20;;;3.80;;
9563;SDS011;4820;50.870;4.702;2023-05-21T03:07:27;7.43;;;4.63;;
9563;SDS011;4820;50.870;4.702;2023-05-21T03:09:53;5.03;;;4.38;;
9563;SDS011;4820;50.870;4.702;2023-05-21T03:12:18;5.28;;;3.88;;
9563;SDS011;4820;50.870;4.702;2023-05-21T03:14:44;4.43;;;4.03;;
9563;SDS011;4820;50.870;4.702;2023-05-21T03:17:10;5.88;;;4.28;;
9563;SDS011;4820;50.870;4.702;2023-05-21T03:19:38;4.68;;;4.28;;
9563;SDS011;4820;50.870;4.702;2023-05-21T03:22:05;4.47;;;4.07;;
9563;SDS011;4820;50.870;4.702;2023-05-21T03:24:31;5.35;;;4.32;;
9563;SDS011;4820;50.870;4.702;2023-05-21T03:26:57;4.80;;;4.13;;
9563;SDS011;4820;50.870;4.702;2023-05-21T03:29:25;4.75;;;4.35;;
9563;SDS011;4820;50.870;4.702;2023-05-21T03:31:51;5.07;;;4.40;;
9563;SDS011;4820;50.870;4.702;2023-05-21T03:34:18;4.15;;;3.75;;
9563;SDS011;4820;50.870;4.702;2023-05-21T03:36:44;4.70;;;4.20;;
9563;SDS011;4820;50.870;4.702;2023-05-21T03:39:10;7.05;;;4.28;;
9563;SDS011;4820;50.870;4.702;2023-05-21T03:41:36;5.38;;;4.30;;
9563;SDS011;4820;50.870;4.702;2023-05-21T03:44:02;6.25;;;4.65;;
9563;SDS011;4820;50.870;4.702;2023-05-21T03:46:28;4.72;;;4.32;;
9563;SDS011;4820;50.870;4.702;2023-05-21T03:48:54;6.07;;;4.40;;
9563;SDS011;4820;50.870;4.702;2023-05-21T03:51:19;6.13;;;4.68;;
9563;SDS011;4820;50.870;4.702;2023-05-21T03:53:45;5.57;;;4.22;;
9563;SDS011;4820;50.870;4.702;2023-05-21T03:56:12;4.72;;;4.32;;
9563;SDS011;4820;50.870;4.702;2023-05-21T03:58:37;6.20;;;4.80;;
9563;SDS011;4820;50.870;4.702;2023-05-21T04:01:04;5.30;;;4.80;;
9563;SDS011;4820;50.870;4.702;2023-05-21T04:03:30;5.93;;;4.85;;
9563;SDS011;4820;50.870;4.702;2023-05-21T04:06:01;5.32;;;4.80;;
9563;SDS011;4820;50.870;4.702;2023-05-21T04:08:27;5.43;;;4.72;;
9563;SDS011;4820;50.870;4.702;2023-05-21T04:10:53;5.88;;;5.30;;
9563;SDS011;4820;50.870;4.702;2023-05-21T04:13:19;5.45;;;4.95;;
9563;SDS011;4820;50.870;4.702;2023-05-21T04:15:45;5.10;;;4.60;;
9563;SDS011;4820;50.870;4.702;2023-05-21T04:18:11;5.15;;;4.65;;
9563;SDS011;4820;50.870;4.702;2023-05-21T04:20:41;6.07;;;5.03;;
9563;SDS011;4820;50.870;4.702;2023-05-21T04:23:07;6.22;;;4.97;;
9563;SDS011;4820;50.870;4.702;2023-05-21T04:25:32;5.72;;;4.80;;
9563;SDS011;4820;50.870;4.702;2023-05-21T04:27:58;5.35;;;4.75;;
9563;SDS011;4820;50.870;4.702;2023-05-21T04:30:25;5.65;;;5.07;;
9563;SDS011;4820;50.870;4.702;2023-05-21T04:32:51;6.07;;;5.22;;
9563;SDS011;4820;50.870;4.702;2023-05-21T04:35:16;7.10;;;5.32;;
9563;SDS011;4820;50.870;4.702;2023-05-21T04:37:42;5.15;;;4.65;;
9563;SDS011;4820;50.870;4.702;2023-05-21T04:40:10;5.95;;;5.45;;
9563;SDS011;4820;50.870;4.702;2023-05-21T04:42:36;6.13;;;4.93;;
9563;SDS011;4820;50.870;4.702;2023-05-21T04:45:03;5.45;;;4.95;;
9563;SDS011;4820;50.870;4.702;2023-05-21T04:47:30;5.93;;;5.13;;
9563;SDS011;4820;50.870;4.702;2023-05-21T04:49:59;6.30;;;5.50;;
9563;SDS011;4820;50.870;4.702;2023-05-21T04:52:28;6.95;;;5.50;;
9563;SDS011;4820;50.870;4.702;2023-05-21T04:54:55;7.00;;;5.47;;
9563;SDS011;4820;50.870;4.702;2023-05-21T04:57:21;6.35;;;5.53;;
9563;SDS011;4820;50.870;4.702;2023-05-21T04:59:48;6.32;;;5.72;;
9563;SDS011;4820;50.870;4.702;2023-05-21T05:02:14;7.60;;;5.78;;
9563;SDS011;4820;50.870;4.702;2023-05-21T05:04:40;5.65;;;5.15;;
9563;SDS011;4820;50.870;4.702;2023-05-21T05:07:08;6.20;;;5.60;;
9563;SDS011;4820;50.870;4.702;2023-05-21T05:09:33;5.95;;;5.40;;
9563;SDS011;4820;50.870;4.702;2023-05-21T05:11:59;5.80;;;5.30;;
9563;SDS011;4820;50.870;4.702;2023-05-21T05:14:26;6.15;;;5.60;;
9563;SDS011;4820;50.870;4.702;2023-05-21T05:16:52;6.88;;;6.28;;
9563;SDS011;4820;50.870;4.702;2023-05-21T05:19:19;6.63;;;5.88;;
9563;SDS011;4820;50.870;4.702;2023-05-21T05:21:44;6.45;;;5.82;;
9563;SDS011;4820;50.870;4.702;2023-05-21T05:24:10;6.15;;;5.65;;
9563;SDS011;4820;50.870;4.702;2023-05-21T05:26:36;5.85;;;5.35;;
9563;SDS011;4820;50.870;4.702;2023-05-21T05:29:02;6.63;;;6.03;;
9563;SDS011;4820;50.870;4.702;2023-05-21T05:31:28;6.68;;;6.07;;
9563;SDS011;4820;50.870;4.702;2023-05-21T05:33:55;6.68;;;5.97;;
9563;SDS011;4820;50.870;4.702;2023-05-21T05:36:22;6.85;;;6.00;;
9563;SDS011;4820;50.870;4.702;2023-05-21T05:38:48;6.35;;;5.75;;
9563;SDS011;4820;50.870;4.702;2023-05-21T05:41:13;6.13;;;5.55;;
9563;SDS011;4820;50.870;4.702;2023-05-21T05:43:39;6.32;;;5.72;;
9563;SDS011;4820;50.870;4.702;2023-05-21T05:46:05;8.60;;;6.05;;
9563;SDS011;4820;50.870;4.702;2023-05-21T05:48:31;6.57;;;5.97;;
9563;SDS011;4820;50.870;4.702;2023-05-21T05:50:57;6.38;;;5.70;;
9563;SDS011;4820;50.870;4.702;2023-05-21T05:53:23;6.15;;;5.55;;
9563;SDS011;4820;50.870;4.702;2023-05-21T05:55:49;6.88;;;6.18;;
9563;SDS011;4820;50.870;4.702;2023-05-21T05:58:14;7.82;;;6.28;;
9563;SDS011;4820;50.870;4.702;2023-05-21T06:00:40;7.22;;;6.53;;
9563;SDS011;4820;50.870;4.702;2023-05-21T06:03:07;7.18;;;5.70;;
9563;SDS011;4820;50.870;4.702;2023-05-21T06:05:33;6.97;;;5.53;;
9563;SDS011;4820;50.870;4.702;2023-05-21T06:07:58;9.15;;;6.20;;
9563;SDS011;4820;50.870;4.702;2023-05-21T06:10:25;7.22;;;6.50;;
9563;SDS011;4820;50.870;4.702;2023-05-21T06:12:50;7.45;;;6.28;;
9563;SDS011;4820;50.870;4.702;2023-05-21T06:15:16;8.05;;;6.60;;
9563;SDS011;4820;50.870;4.702;2023-05-21T06:17:43;9.10;;;6.38;;
9563;SDS011;4820;50.870;4.702;2023-05-21T06:20:09;6.20;;;5.60;;
9563;SDS011;4820;50.870;4.702;2023-05-21T06:22:37;6.75;;;6.05;;
9563;SDS011;4820;50.870;4.702;2023-05-21T06:25:03;6.40;;;5.80;;
9563;SDS011;4820;50.870;4.702;2023-05-21T06:27:29;7.18;;;6.05;;
9563;SDS011;4820;50.870;4.702;2023-05-21T06:29:54;6.35;;;5.85;;
9563;SDS011;4820;50.870;4.702;2023-05-21T06:32:23;6.47;;;5.88;;
9563;SDS011;4820;50.870;4.702;2023-05-21T06:34:49;6.15;;;5.65;;
9563;SDS011;4820;50.870;4.702;2023-05-21T06:37:18;6.55;;;5.90;;
9563;SDS011;4820;50.870;4.702;2023-05-21T06:39:49;7.22;;;6.47;;
9563;SDS011;4820;50.870;4.702;2023-05-21T06:42:15;7.13;;;6.43;;
9563;SDS011;4820;50.870;4.702;2023-05-21T06:44:40;7.57;;;5.55;;
9563;SDS011;4820;50.870;4.702;2023-05-21T06:47:06;6.63;;;5.95;;
9563;SDS011;4820;50.870;4.702;2023-05-21T06:49:32;6.20;;;5.60;;
9563;SDS011;4820;50.870;4.702;2023-05-21T06:51:58;6.05;;;5.45;;
9563;SDS011;4820;50.870;4.702;2023-05-21T06:54:23;6.57;;;5.97;;
9563;SDS011;4820;50.870;4.702;2023-05-21T06:56:49;6.78;;;6.07;;
9563;SDS011;4820;50.870;4.702;2023-05-21T06:59:15;7.20;;;5.82;;
9563;SDS011;4820;50.870;4.702;2023-05-21T07:01:41;7.82;;;6.22;;
9563;SDS011;4820;50.870;4.702;2023-05-21T07:04:07;7.53;;;6.45;;
9563;SDS011;4820;50.870;4.702;2023-05-21T07:06:34;6.22;;;5.63;;
9563;SDS011;4820;50.870;4.702;2023-05-21T07:09:00;7.03;;;6.10;;
9563;SDS011;4820;50.870;4.702;2023-05-21T07:11:27;7.03;;;6.43;;
9563;SDS011;4820;50.870;4.702;2023-05-21T07:13:53;6.35;;;5.78;;
9563;SDS011;4820;50.870;4.702;2023-05-21T07:16:22;7.03;;;6.32;;
9563;SDS011;4820;50.870;4.702;2023-05-21T07:18:47;6.60;;;6.00;;
9563;SDS011;4820;50.870;4.702;2023-05-21T07:21:14;6.90;;;6.20;;
9563;SDS011;4820;50.870;4.702;2023-05-21T07:23:40;7.43;;;6.53;;
9563;SDS011;4820;50.870;4.702;2023-05-21T07:26:06;6.80;;;6.20;;
9563;SDS011;4820;50.870;4.702;2023-05-21T07:28:33;7.00;;;6.30;;
9563;SDS011;4820;50.870;4.702;2023-05-21T07:30:58;7.70;;;6.80;;
9563;SDS011;4820;50.870;4.702;2023-05-21T07:33:24;7.00;;;6.40;;
9563;SDS011;4820;50.870;4.702;2023-05-21T07:35:50;6.35;;;5.75;;
9563;SDS011;4820;50.870;4.702;2023-05-21T07:38:16;8.13;;;7.25;;
9563;SDS011;4820;50.870;4.702;2023-05-21T07:40:42;7.53;;;6.80;;
9563;SDS011;4820;50.870;4.702;2023-05-21T07:43:08;6.82;;;6.22;;
9563;SDS011;4820;50.870;4.702;2023-05-21T07:45:34;7.45;;;6.43;;
9563;SDS011;4820;50.870;4.702;2023-05-21T07:48:00;6.63;;;6.03;;
9563;SDS011;4820;50.870;4.702;2023-05-21T07:50:26;7.20;;;6.45;;
9563;SDS011;4820;50.870;4.702;2023-05-21T07:52:52;7.40;;;6.75;;
9563;SDS011;4820;50.870;4.702;2023-05-21T07:55:18;7.88;;;7.07;;
9563;SDS011;4820;50.870;4.702;2023-05-21T07:57:43;7.47;;;6.78;;
9563;SDS011;4820;50.870;4.702;2023-05-21T08:00:09;7.53;;;6.82;;
9563;SDS011;4820;50.870;4.702;2023-05-21T08:02:38;7.68;;;6.90;;
9563;SDS011;4820;50.870;4.702;2023-05-21T08:05:05;7.28;;;6.63;;
9563;SDS011;4820;50.870;4.702;2023-05-21T08:07:31;8.18;;;7.35;;
9563;SDS011;4820;50.870;4.702;2023-05-21T08:09:57;9.13;;;6.78;;
9563;SDS011;4820;50.870;4.702;2023-05-21T08:12:23;7.57;;;6.78;;
9563;SDS011;4820;50.870;4.702;2023-05-21T08:14:49;6.75;;;6.15;;
9563;SDS011;4820;50.870;4.702;2023-05-21T08:17:15;7.47;;;6.80;;
9563;SDS011;4820;50.870;4.702;2023-05-21T08:19:40;6.97;;;6.28;;
9563;SDS011;4820;50.870;4.702;2023-05-21T08:22:08;7.80;;;6.75;;
9563;SDS011;4820;50.870;4.702;2023-05-21T08:24:35;10.48;;;7.55;;
9563;SDS011;4820;50.870;4.702;2023-05-21T08:27:01;7.90;;;7.20;;
9563;SDS011;4820;50.870;4.702;2023-05-21T08:29:27;8.02;;;7.32;;
9563;SDS011;4820;50.870;4.702;2023-05-21T08:31:52;8.23;;;7.43;;
9563;SDS011;4820;50.870;4.702;2023-05-21T08:34:18;7.70;;;7.00;;
9563;SDS011;4820;50.870;4.702;2023-05-21T08:36:45;7.90;;;7.07;;
9563;SDS011;4820;50.870;4.702;2023-05-21T08:39:11;13.88;;;7.93;;
9563;SDS011;4820;50.870;4.702;2023-05-21T08:41:37;8.52;;;7.63;;
9563;SDS011;4820;50.870;4.702;2023-05-21T08:44:06;7.47;;;6.72;;
9563;SDS011;4820;50.870;4.702;2023-05-21T08:46:38;8.68;;;7.80;;
9563;SDS011;4820;50.870;4.702;2023-05-21T08:49:05;9.20;;;8.18;;
9563;SDS011;4820;50.870;4.702;2023-05-21T08:51:36;9.57;;;7.90;;
9563;SDS011;4820;50.870;4.702;2023-05-21T08:54:03;9.60;;;7.57;;
9563;SDS011;4820;50.870;4.702;2023-05-21T08:56:32;9.18;;;7.53;;
9563;SDS011;4820;50.870;4.702;2023-05-21T08:58:59;8.30;;;7.50;;
9563;SDS011;4820;50.870;4.702;2023-05-21T09:01:26;7.60;;;6.75;;
9563;SDS011;4820;50.870;4.702;2023-05-21T09:03:52;8.50;;;7.68;;
9563;SDS011;4820;50.870;4.702;2023-05-21T09:06:22;8.93;;;7.78;;
9563;SDS011;4820;50.870;4.702;2023-05-21T09:08:53;10.98;;;9.07;;
9563;SDS011;4820;50.870;4.702;2023-05-21T09:11:27;11.02;;;8.65;;
9563;SDS011;4820;50.870;4.702;2023-05-21T09:13:53;9.07;;;8.20;;
9563;SDS011;4820;50.870;4.702;2023-05-21T09:16:20;10.40;;;8.52;;
9563;SDS011;4820;50.870;4.702;2023-05-21T09:18:47;8.35;;;7.60;;
9563;SDS011;4820;50.870;4.702;2023-05-21T09:21:25;8.90;;;7.95;;
9563;SDS011;4820;50.870;4.702;2023-05-21T09:23:58;8.98;;;8.18;;
9563;SDS011;4820;50.870;4.702;2023-05-21T09:26:25;11.40;;;8.85;;
9563;SDS011;4820;50.870;4.702;2023-05-21T09:28:51;8.48;;;7.78;;
9563;SDS011;4820;50.870;4.702;2023-05-21T09:31:22;9.43;;;8.57;;
9563;SDS011;4820;50.870;4.702;2023-05-21T09:33:48;11.75;;;8.80;;
9563;SDS011;4820;50.870;4.702;2023-05-21T09:36:18;9.20;;;8.30;;
9563;SDS011;4820;50.870;4.702;2023-05-21T09:38:49;9.40;;;8.50;;
9563;SDS011;4820;50.870;4.702;2023-05-21T09:41:16;9.65;;;8.65;;
9563;SDS011;4820;50.870;4.702;2023-05-21T09:43:43;10.35;;;9.35;;
9563;SDS011;4820;50.870;4.702;2023-05-21T09:46:09;11.25;;;10.10;;
9563;SDS011;4820;50.870;4.702;2023-05-21T09:48:36;10.00;;;9.00;;
9563;SDS011;4820;50.870;4.702;2023-05-21T09:53:42;8.93;;;8.10;;
9563;SDS011;4820;50.870;4.702;2023-05-21T09:56:09;10.68;;;9.57;;
9563;SDS011;4820;50.870;4.702;2023-05-21T09:58:35;10.25;;;9.27;;
9563;SDS011;4820;50.870;4.702;2023-05-21T10:01:02;10.15;;;8.98;;
9563;SDS011;4820;50.870;4.702;2023-05-21T10:03:28;9.95;;;8.73;;
9563;SDS011;4820;50.870;4.702;2023-05-21T10:05:55;10.73;;;9.63;;
9563;SDS011;4820;50.870;4.702;2023-05-21T10:08:25;9.82;;;8.95;;
9563;SDS011;4820;50.870;4.702;2023-05-21T10:10:53;9.85;;;8.85;;
9563;SDS011;4820;50.870;4.702;2023-05-21T10:13:20;10.40;;;9.40;;
9563;SDS011;4820;50.870;4.702;2023-05-21T10:15:49;9.88;;;8.98;;
9563;SDS011;4820;50.870;4.702;2023-05-21T10:18:21;10.05;;;9.00;;
9563;SDS011;4820;50.870;4.702;2023-05-21T10:20:49;10.25;;;9.35;;
9563;SDS011;4820;50.870;4.702;2023-05-21T10:23:17;10.25;;;9.18;;
9563;SDS011;4820;50.870;4.702;2023-05-21T10:25:44;11.20;;;9.93;;
9563;SDS011;4820;50.870;4.702;2023-05-21T10:28:12;10.60;;;9.50;;
9563;SDS011;4820;50.870;4.702;2023-05-21T10:30:41;11.25;;;10.07;;
9563;SDS011;4820;50.870;4.702;2023-05-21T10:33:07;10.95;;;9.95;;
9563;SDS011;4820;50.870;4.702;2023-05-21T10:35:33;10.55;;;9.57;;
9563;SDS011;4820;50.870;4.702;2023-05-21T10:38:01;11.30;;;10.25;;
9563;SDS011;4820;50.870;4.702;2023-05-21T10:40:28;10.02;;;9.02;;
9563;SDS011;4820;50.870;4.702;2023-05-21T10:46:11;9.80;;;8.90;;
9563;SDS011;4820;50.870;4.702;2023-05-21T10:52:12;11.85;;;10.70;;
9563;SDS011;4820;50.870;4.702;2023-05-21T10:54:56;9.55;;;8.65;;
9563;SDS011;4820;50.870;4.702;2023-05-21T11:00:33;11.70;;;10.60;;
9563;SDS011;4820;50.870;4.702;2023-05-21T11:02:59;10.90;;;9.80;;
9563;SDS011;4820;50.870;4.702;2023-05-21T11:08:25;12.57;;;10.50;;
9563;SDS011;4820;50.870;4.702;2023-05-21T11:10:52;12.90;;;11.60;;
9563;SDS011;4820;50.870;4.702;2023-05-21T11:13:21;13.52;;;12.25;;
9563;SDS011;4820;50.870;4.702;2023-05-21T11:18:23;11.45;;;10.38;;
9563;SDS011;4820;50.870;4.702;2023-05-21T11:21:05;12.80;;;11.48;;
9563;SDS011;4820;50.870;4.702;2023-05-21T11:23:50;13.20;;;11.90;;
9563;SDS011;4820;50.870;4.702;2023-05-21T11:26:57;13.35;;;12.00;;
9563;SDS011;4820;50.870;4.702;2023-05-21T11:29:16;12.82;;;11.70;;
9563;SDS011;4820;50.870;4.702;2023-05-21T11:31:46;12.27;;;11.20;;
9563;SDS011;4820;50.870;4.702;2023-05-21T11:34:20;11.73;;;10.63;;
9563;SDS011;4820;50.870;4.702;2023-05-21T11:37:21;12.80;;;11.63;;
9563;SDS011;4820;50.870;4.702;2023-05-21T11:39:41;12.73;;;11.60;;
9563;SDS011;4820;50.870;4.702;2023-05-21T11:42:07;12.50;;;11.40;;
9563;SDS011;4820;50.870;4.702;2023-05-21T11:44:48;12.27;;;11.18;;
9563;SDS011;4820;50.870;4.702;2023-05-21T11:47:14;13.05;;;11.63;;
9563;SDS011;4820;50.870;4.702;2023-05-21T11:49:45;13.43;;;11.23;;
9563;SDS011;4820;50.870;4.702;2023-05-21T11:52:11;12.63;;;11.43;;
9563;SDS011;4820;50.870;4.702;2023-05-21T11:54:41;11.73;;;10.65;;
9563;SDS011;4820;50.870;4.702;2023-05-21T11:57:11;12.13;;;10.88;;
9563;SDS011;4820;50.870;4.702;2023-05-21T11:59:42;12.32;;;11.13;;
9563;SDS011;4820;50.870;4.702;2023-05-21T12:02:08;12.65;;;11.45;;
9563;SDS011;4820;50.870;4.702;2023-05-21T12:04:34;13.50;;;12.10;;
9563;SDS011;4820;50.870;4.702;2023-05-21T12:07:04;13.85;;;12.52;;
9563;SDS011;4820;50.870;4.702;2023-05-21T12:12:09;12.00;;;10.88;;
9563;SDS011;4820;50.870;4.702;2023-05-21T12:14:42;12.57;;;11.48;;
9563;SDS011;4820;50.870;4.702;2023-05-21T12:17:09;13.15;;;10.85;;
9563;SDS011;4820;50.870;4.702;2023-05-21T12:19:37;14.82;;;11.85;;
9563;SDS011;4820;50.870;4.702;2023-05-21T12:22:04;13.18;;;11.07;;
9563;SDS011;4820;50.870;4.702;2023-05-21T12:24:31;12.07;;;10.77;;
9563;SDS011;4820;50.870;4.702;2023-05-21T12:27:01;12.52;;;11.32;;
9563;SDS011;4820;50.870;4.702;2023-05-21T12:29:33;12.57;;;11.43;;
9563;SDS011;4820;50.870;4.702;2023-05-21T12:32:00;13.05;;;11.82;;
9563;SDS011;4820;50.870;4.702;2023-05-21T12:39:51;12.48;;;11.25;;
9563;SDS011;4820;50.870;4.702;2023-05-21T12:42:25;10.13;;;9.13;;
9563;SDS011;4820;50.870;4.702;2023-05-21T12:44:54;12.45;;;11.35;;
9563;SDS011;4820;50.870;4.702;2023-05-21T12:47:24;13.93;;;12.70;;
9563;SDS011;4820;50.870;4.702;2023-05-21T12:49:59;14.50;;;13.07;;
9563;SDS011;4820;50.870;4.702;2023-05-21T12:52:27;13.35;;;12.15;;
9563;SDS011;4820;50.870;4.702;2023-05-21T12:54:57;12.57;;;11.48;;
9563;SDS011;4820;50.870;4.702;2023-05-21T12:57:24;12.45;;;11.15;;
9563;SDS011;4820;50.870;4.702;2023-05-21T13:02:21;12.63;;;11.45;;
9563;SDS011;4820;50.870;4.702;2023-05-21T13:05:02;13.88;;;12.45;;
9563;SDS011;4820;50.870;4.702;2023-05-21T13:07:31;13.82;;;12.43;;
9563;SDS011;4820;50.870;4.702;2023-05-21T13:09:58;14.75;;;12.00;;
9563;SDS011;4820;50.870;4.702;2023-05-21T13:12:25;12.50;;;11.30;;
9563;SDS011;4820;50.870;4.702;2023-05-21T13:14:56;12.43;;;11.30;;
9563;SDS011;4820;50.870;4.702;2023-05-21T13:17:23;14.43;;;13.10;;
9563;SDS011;4820;50.870;4.702;2023-05-21T13:22:37;12.57;;;11.48;;
9563;SDS011;4820;50.870;4.702;2023-05-21T13:25:08;12.77;;;11.57;;
9563;SDS011;4820;50.870;4.702;2023-05-21T13:27:40;11.68;;;10.70;;
9563;SDS011;4820;50.870;4.702;2023-05-21T13:30:06;13.40;;;12.10;;
9563;SDS011;4820;50.870;4.702;2023-05-21T13:32:33;13.63;;;12.13;;
9563;SDS011;4820;50.870;4.702;2023-05-21T13:34:59;12.25;;;11.05;;
9563;SDS011;4820;50.870;4.702;2023-05-21T13:37:25;13.02;;;11.82;;
9563;SDS011;4820;50.870;4.702;2023-05-21T13:39:51;11.70;;;10.50;;
9563;SDS011;4820;50.870;4.702;2023-05-21T13:42:18;12.23;;;11.13;;
9563;SDS011;4820;50.870;4.702;2023-05-21T13:44:45;11.85;;;10.75;;
9563;SDS011;4820;50.870;4.702;2023-05-21T13:47:11;12.48;;;11.32;;
9563;SDS011;4820;50.870;4.702;2023-05-21T13:49:37;12.55;;;11.45;;
9563;SDS011;4820;50.870;4.702;2023-05-21T13:52:04;11.00;;;9.90;;
9563;SDS011;4820;50.870;4.702;2023-05-21T13:54:31;11.07;;;10.02;;
9563;SDS011;4820;50.870;4.702;2023-05-21T13:56:56;12.57;;;11.40;;
9563;SDS011;4820;50.870;4.702;2023-05-21T13:59:23;12.88;;;11.68;;
9563;SDS011;4820;50.870;4.702;2023-05-21T14:01:48;10.88;;;9.77;;
9563;SDS011;4820;50.870;4.702;2023-05-21T14:04:16;11.60;;;10.52;;
9563;SDS011;4820;50.870;4.702;2023-05-21T14:06:43;12.57;;;10.75;;
9563;SDS011;4820;50.870;4.702;2023-05-21T14:09:09;11.68;;;10.50;;
9563;SDS011;4820;50.870;4.702;2023-05-21T14:11:35;12.40;;;10.63;;
9563;SDS011;4820;50.870;4.702;2023-05-21T14:14:01;11.50;;;10.43;;
9563;SDS011;4820;50.870;4.702;2023-05-21T14:16:27;13.00;;;11.70;;
9563;SDS011;4820;50.870;4.702;2023-05-21T14:18:53;12.70;;;11.40;;
9563;SDS011;4820;50.870;4.702;2023-05-21T14:21:19;11.48;;;10.30;;
9563;SDS011;4820;50.870;4.702;2023-05-21T14:23:45;10.07;;;9.23;;
9563;SDS011;4820;50.870;4.702;2023-05-21T14:26:12;13.70;;;12.50;;
9563;SDS011;4820;50.870;4.702;2023-05-21T14:28:38;12.13;;;11.07;;
9563;SDS011;4820;50.870;4.702;2023-05-21T14:31:04;12.63;;;11.43;;
9563;SDS011;4820;50.870;4.702;2023-05-21T14:33:30;14.07;;;12.68;;
9563;SDS011;4820;50.870;4.702;2023-05-21T14:35:57;12.27;;;11.13;;
9563;SDS011;4820;50.870;4.702;2023-05-21T14:38:23;12.45;;;11.18;;
9563;SDS011;4820;50.870;4.702;2023-05-21T14:40:49;12.55;;;11.35;;
9563;SDS011;4820;50.870;4.702;2023-05-21T14:43:15;11.18;;;10.15;;
9563;SDS011;4820;50.870;4.702;2023-05-21T14:45:41;13.43;;;12.23;;
9563;SDS011;4820;50.870;4.702;2023-05-21T14:48:06;13.32;;;12.07;;
9563;SDS011;4820;50.870;4.702;2023-05-21T14:50:39;11.38;;;10.18;;
9563;SDS011;4820;50.870;4.702;2023-05-21T14:53:08;10.57;;;9.57;;
9563;SDS011;4820;50.870;4.702;2023-05-21T14:55:36;12.27;;;11.18;;
9563;SDS011;4820;50.870;4.702;2023-05-21T14:58:02;12.18;;;11.07;;
9563;SDS011;4820;50.870;4.702;2023-05-21T15:00:30;10.82;;;9.82;;
9563;SDS011;4820;50.870;4.702;2023-05-21T15:02:56;10.55;;;9.65;;
9563;SDS011;4820;50.870;4.702;2023-05-21T15:05:23;11.88;;;10.88;;
9563;SDS011;4820;50.870;4.702;2023-05-21T15:07:49;9.60;;;8.70;;
9563;SDS011;4820;50.870;4.702;2023-05-21T15:10:15;12.38;;;11.35;;
9563;SDS011;4820;50.870;4.702;2023-05-21T15:12:41;12.32;;;11.20;;
9563;SDS011;4820;50.870;4.702;2023-05-21T15:15:07;10.90;;;9.88;;
9563;SDS011;4820;50.870;4.702;2023-05-21T15:17:33;12.52;;;10.77;;
9563;SDS011;4820;50.870;4.702;2023-05-21T15:20:00;11.15;;;10.02;;
9563;SDS011;4820;50.870;4.702;2023-05-21T15:22:28;10.75;;;9.80;;
9563;SDS011;4820;50.870;4.702;2023-05-21T15:25:00;11.30;;;10.30;;
9563;SDS011;4820;50.870;4.702;2023-05-21T15:27:27;13.70;;;12.23;;
9563;SDS011;4820;50.870;4.702;2023-05-21T15:29:53;11.48;;;10.38;;
9563;SDS011;4820;50.870;4.702;2023-05-21T15:32:19;13.43;;;10.68;;
9563;SDS011;4820;50.870;4.702;2023-05-21T15:34:45;12.40;;;11.23;;
9563;SDS011;4820;50.870;4.702;2023-05-21T15:37:11;10.60;;;9.50;;
9563;SDS011;4820;50.870;4.702;2023-05-21T15:39:43;12.57;;;11.38;;
9563;SDS011;4820;50.870;4.702;2023-05-21T15:42:12;13.02;;;11.73;;